createdAt,value
2023-01-29T00:00:11.258Z,74.75
2023-01-29T00:03:37.986Z,78.00
2023-01-29T00:06:41.811Z,79.25
2023-01-29T00:09:46.817Z,70.75
2023-01-29T00:12:52.136Z,66.00
2023-01-29T00:15:58.167Z,58.75
2023-01-29T00:19:02.589Z,75.25
2023-01-29T00:22:06.471Z,72.25
2023-01-29T00:25:11.588Z,91.00
2023-01-29T00:28:19.596Z,66.00
2023-01-29T00:31:27.037Z,83.00
2023-01-29T00:34:31.437Z,78.50
2023-01-29T00:37:34.895Z,88.50
2023-01-29T00:40:53.658Z,56.25
2023-01-29T00:44:15.129Z,65.50
2023-01-29T00:47:33.475Z,72.00
2023-01-29T00:50:37.232Z,72.75
2023-01-29T00:53:43.001Z,63.25
2023-01-29T00:56:46.575Z,54.25
2023-01-29T00:59:51.383Z,66.75
2023-01-29T01:03:08.263Z,56.75
2023-01-29T01:06:13.503Z,62.75
2023-01-29T01:09:35.535Z,57.50
2023-01-29T01:12:39.572Z,57.00
2023-01-29T01:15:43.064Z,60.25
2023-01-29T01:18:48.442Z,56.00
2023-01-29T01:21:52.002Z,58.75
2023-01-29T01:24:55.717Z,51.25
2023-01-29T01:28:03.445Z,65.25
2023-01-29T01:31:12.072Z,48.00
2023-01-29T01:34:17.212Z,42.75
2023-01-29T01:37:21.055Z,59.50
2023-01-29T01:40:25.944Z,56.50
2023-01-29T01:43:29.913Z,52.50
2023-01-29T01:46:38.868Z,39.00
2023-01-29T01:49:44.671Z,57.25
2023-01-29T01:52:51.683Z,50.00
2023-01-29T01:56:01.707Z,56.75
2023-01-29T01:59:09.766Z,52.00
2023-01-29T02:02:32.411Z,54.25
2023-01-29T02:05:55.897Z,51.00
2023-01-29T02:09:21.618Z,63.00
2023-01-29T02:12:25.959Z,54.50
2023-01-29T02:15:29.679Z,47.50
2023-01-29T02:18:37.989Z,46.75
2023-01-29T02:22:11.594Z,52.50
2023-01-29T02:25:49.028Z,41.50
2023-01-29T02:29:21.572Z,59.25
2023-01-29T02:32:34.291Z,57.75
2023-01-29T02:35:44.984Z,39.25
2023-01-29T02:39:01.128Z,71.00
2023-01-29T02:42:18.142Z,51.75
2023-01-29T02:45:33.981Z,49.75
2023-01-29T02:48:46.029Z,62.00
2023-01-29T02:51:57.000Z,44.25
2023-01-29T02:55:09.630Z,40.00
2023-01-29T02:58:23.528Z,49.00
2023-01-29T03:01:34.263Z,55.50
2023-01-29T03:04:46.614Z,50.75
2023-01-29T03:07:58.683Z,51.50
2023-01-29T03:11:13.875Z,50.50
2023-01-29T03:14:47.769Z,49.25
2023-01-29T03:17:57.995Z,49.25
2023-01-29T03:21:26.559Z,52.50
2023-01-29T03:24:56.123Z,44.25
2023-01-29T03:28:22.518Z,49.00
2023-01-29T03:31:45.789Z,51.00
2023-01-29T03:34:59.028Z,45.75
2023-01-29T03:38:05.236Z,26.50
2023-01-29T03:41:17.010Z,53.00
2023-01-29T03:44:32.302Z,55.00
2023-01-29T03:47:47.172Z,40.75
2023-01-29T03:50:59.045Z,44.25
2023-01-29T03:54:11.959Z,43.75
2023-01-29T03:57:21.323Z,43.25
2023-01-29T04:00:30.923Z,36.75
2023-01-29T04:03:45.052Z,42.75
2023-01-29T04:06:54.188Z,42.25
2023-01-29T04:10:02.203Z,42.50
2023-01-29T04:13:13.186Z,48.50
2023-01-29T04:16:24.065Z,46.00
2023-01-29T04:19:38.254Z,55.75
2023-01-29T04:22:47.219Z,39.75
2023-01-29T04:25:59.503Z,59.00
2023-01-29T04:29:22.849Z,41.50
2023-01-29T04:32:38.106Z,62.00
2023-01-29T04:35:55.495Z,59.75
2023-01-29T04:39:12.083Z,55.75
2023-01-29T04:42:26.043Z,55.50
2023-01-29T04:45:40.501Z,51.50
2023-01-29T04:48:59.753Z,58.00
2023-01-29T04:52:10.765Z,69.25
2023-01-29T04:55:21.130Z,59.00
2023-01-29T04:58:34.081Z,57.75
2023-01-29T05:01:40.079Z,54.00
2023-01-29T05:04:47.247Z,40.25
2023-01-29T05:07:51.818Z,68.75
2023-01-29T05:10:59.956Z,69.25
2023-01-29T05:14:08.176Z,42.75
2023-01-29T05:17:17.148Z,50.25
2023-01-29T05:20:21.405Z,55.00
2023-01-29T05:23:25.461Z,66.00
2023-01-29T05:26:47.730Z,75.75
2023-01-29T05:29:51.441Z,90.00
2023-01-29T05:32:54.928Z,68.00
2023-01-29T05:36:02.299Z,56.75
2023-01-29T05:39:05.913Z,58.00
2023-01-29T05:42:11.285Z,78.50
2023-01-29T05:45:14.859Z,151.00
2023-01-29T05:48:18.800Z,83.75
2023-01-29T05:51:22.322Z,75.75
2023-01-29T05:54:26.061Z,86.00
2023-01-29T05:57:30.965Z,69.00
2023-01-29T06:00:34.864Z,65.25
2023-01-29T06:03:38.349Z,76.50
2023-01-29T06:06:42.090Z,64.75
2023-01-29T06:09:45.595Z,70.75
2023-01-29T06:12:51.151Z,70.25
2023-01-29T06:15:54.708Z,72.25
2023-01-29T06:18:58.691Z,80.75
2023-01-29T06:22:02.219Z,57.75
2023-01-29T06:25:08.670Z,64.25
2023-01-29T06:28:13.519Z,71.25
2023-01-29T06:31:37.749Z,60.00
2023-01-29T06:34:41.759Z,82.25
2023-01-29T06:37:45.837Z,65.50
2023-01-29T06:40:49.219Z,69.00
2023-01-29T06:43:54.529Z,113.33
2023-01-29T06:46:58.052Z,59.75
2023-01-29T06:50:02.233Z,98.33
2023-01-29T06:53:05.728Z,88.00
2023-01-29T06:56:10.105Z,91.67
2023-01-29T06:59:15.228Z,74.75
2023-01-29T07:02:19.297Z,91.75
2023-01-29T07:05:22.875Z,93.33
2023-01-29T07:08:26.653Z,83.67
2023-01-29T07:11:30.259Z,54.25
2023-01-29T07:14:37.175Z,54.00
2023-01-29T07:17:41.310Z,74.50
2023-01-29T07:20:45.107Z,54.50
2023-01-29T07:23:49.990Z,61.75
2023-01-29T07:26:54.110Z,96.67
2023-01-29T07:29:58.867Z,111.33
2023-01-29T07:33:07.106Z,240.25
2023-01-29T07:36:11.450Z,104.67
2023-01-29T07:39:16.331Z,72.00
2023-01-29T07:42:19.823Z,107.67
2023-01-29T07:45:25.299Z,80.00
2023-01-29T07:48:28.840Z,91.00
2023-01-29T07:51:33.377Z,106.67
2023-01-29T07:54:36.859Z,85.25
2023-01-29T07:57:40.743Z,71.50
2023-01-29T08:00:45.936Z,117.33
2023-01-29T08:03:51.245Z,101.33
2023-01-29T08:06:54.798Z,120.00
2023-01-29T08:10:00.764Z,100.67
2023-01-29T08:13:05.489Z,100.00
2023-01-29T08:16:29.464Z,188.75
2023-01-29T08:19:33.377Z,98.33
2023-01-29T08:22:37.318Z,119.33
2023-01-29T08:25:41.273Z,88.67
2023-01-29T08:28:45.299Z,104.67
2023-01-29T08:31:50.404Z,72.00
2023-01-29T08:34:54.208Z,87.00
2023-01-29T08:37:59.746Z,76.75
2023-01-29T08:41:06.535Z,77.50
2023-01-29T08:44:10.350Z,64.50
2023-01-29T08:47:16.395Z,76.75
2023-01-29T08:50:20.374Z,70.75
2023-01-29T08:53:25.049Z,64.00
2023-01-29T08:56:28.643Z,58.00
2023-01-29T08:59:32.642Z,84.25
2023-01-29T09:02:37.990Z,81.33
2023-01-29T09:05:43.887Z,75.75
2023-01-29T09:08:48.014Z,96.00
2023-01-29T09:11:51.972Z,85.33
2023-01-29T09:14:56.969Z,89.67
2023-01-29T09:18:06.462Z,83.67
2023-01-29T09:21:10.463Z,69.00
2023-01-29T09:24:14.337Z,83.67
2023-01-29T09:27:18.043Z,93.33
2023-01-29T09:30:22.305Z,103.33
2023-01-29T09:33:27.279Z,78.50
2023-01-29T09:36:30.978Z,95.67
2023-01-29T09:39:36.057Z,101.00
2023-01-29T09:42:48.692Z,91.67
2023-01-29T09:45:57.495Z,83.33
2023-01-29T09:49:08.812Z,113.33
2023-01-29T09:52:18.663Z,88.00
2023-01-29T09:55:26.350Z,75.25
2023-01-29T09:58:33.636Z,61.00
2023-01-29T10:01:45.772Z,58.25
2023-01-29T10:05:23.537Z,73.75
2023-01-29T10:08:48.770Z,77.67
2023-01-29T10:12:06.604Z,68.00
2023-01-29T10:15:24.972Z,65.75
2023-01-29T10:18:55.181Z,48.00
2023-01-29T10:22:38.906Z,46.00
2023-01-29T10:25:45.725Z,77.75
2023-01-29T10:28:52.908Z,86.33
2023-01-29T10:32:05.347Z,57.75
2023-01-29T10:35:22.553Z,72.50
2023-01-29T10:38:36.429Z,79.00
2023-01-29T10:41:57.134Z,66.75
2023-01-29T10:45:20.175Z,66.00
2023-01-29T10:48:41.919Z,75.50
2023-01-29T10:52:04.950Z,73.00
2023-01-29T10:55:25.380Z,102.00
2023-01-29T10:58:35.168Z,69.50
2023-01-29T11:01:39.409Z,73.50
2023-01-29T11:04:43.016Z,65.50
2023-01-29T11:07:47.774Z,62.00
2023-01-29T11:11:02.568Z,94.00
2023-01-29T11:14:11.312Z,68.25
2023-01-29T11:17:19.080Z,88.33
2023-01-29T11:20:28.839Z,73.00
2023-01-29T11:23:34.394Z,73.75
2023-01-29T11:26:42.360Z,63.50
2023-01-29T11:29:48.262Z,47.00
2023-01-29T11:32:59.218Z,68.25
2023-01-29T11:36:22.839Z,68.00
2023-01-29T11:39:28.063Z,61.25
2023-01-29T11:42:34.243Z,48.00
2023-01-29T11:45:41.003Z,66.75
2023-01-29T11:48:48.026Z,82.50
2023-01-29T11:51:56.462Z,86.25
2023-01-29T11:55:02.287Z,72.00
2023-01-29T11:58:14.859Z,56.25
2023-01-29T12:01:25.941Z,27.50
2023-01-29T12:04:31.440Z,82.50
2023-01-29T12:07:36.187Z,82.50
2023-01-29T12:10:42.479Z,76.75
2023-01-29T12:13:55.759Z,73.50
2023-01-29T12:17:07.089Z,73.50
2023-01-29T12:20:19.027Z,60.50
2023-01-29T12:23:32.888Z,82.00
2023-01-29T12:26:42.430Z,55.75
2023-01-29T12:29:53.983Z,66.00
2023-01-29T12:33:03.683Z,65.00
2023-01-29T12:36:14.950Z,71.75
2023-01-29T12:39:18.973Z,87.75
2023-01-29T12:42:24.664Z,45.75
2023-01-29T12:45:32.438Z,76.25
2023-01-29T12:48:41.292Z,68.50
2023-01-29T12:51:54.512Z,97.33
2023-01-29T12:55:04.932Z,61.25
2023-01-29T12:58:17.068Z,82.50
2023-01-29T13:01:31.242Z,70.75
2023-01-29T13:04:41.443Z,72.00
2023-01-29T13:07:50.832Z,52.25
2023-01-29T13:10:56.461Z,59.75
2023-01-29T13:14:03.293Z,59.25
2023-01-29T13:17:12.328Z,58.00
2023-01-29T13:20:22.259Z,68.25
2023-01-29T13:23:33.559Z,68.00
2023-01-29T13:26:38.274Z,66.25
2023-01-29T13:29:45.172Z,61.75
2023-01-29T13:32:54.393Z,78.50
2023-01-29T13:36:00.981Z,58.50
2023-01-29T13:39:08.624Z,72.00
2023-01-29T13:42:18.972Z,53.75
2023-01-29T13:45:25.978Z,73.50
2023-01-29T13:48:36.900Z,64.00
2023-01-29T13:51:40.887Z,81.00
2023-01-29T13:54:54.783Z,83.00
2023-01-29T13:57:59.819Z,86.67
2023-01-29T14:01:03.764Z,62.00
2023-01-29T14:04:25.889Z,93.00
2023-01-29T14:07:51.393Z,89.33
2023-01-29T14:11:28.864Z,96.67
2023-01-29T14:14:53.074Z,91.67
2023-01-29T14:18:06.363Z,76.75
2023-01-29T14:21:24.213Z,159.67
2023-01-29T14:24:32.262Z,135.00
2023-01-29T14:27:38.391Z,188.25
2023-01-29T14:30:48.872Z,96.00
2023-01-29T14:33:54.411Z,71.50
2023-01-29T14:37:03.963Z,85.33
2023-01-29T14:40:21.520Z,97.67
2023-01-29T14:43:25.538Z,101.33
2023-01-29T14:46:45.832Z,72.75
2023-01-29T14:49:51.285Z,111.00
2023-01-29T14:53:03.001Z,73.25
2023-01-29T14:56:15.611Z,109.00
2023-01-29T14:59:23.343Z,116.67
2023-01-29T15:02:35.224Z,95.67
2023-01-29T15:05:40.880Z,107.33
2023-01-29T15:08:52.097Z,94.67
2023-01-29T15:12:04.715Z,134.67
2023-01-29T15:15:17.698Z,101.67
2023-01-29T15:18:32.641Z,121.00
2023-01-29T15:21:37.499Z,98.67
2023-01-29T15:24:44.088Z,82.50
2023-01-29T15:27:48.560Z,90.50
2023-01-29T15:30:57.066Z,95.25
2023-01-29T15:34:07.797Z,87.50
2023-01-29T15:37:26.703Z,78.50
2023-01-29T15:40:32.202Z,96.00
2023-01-29T15:43:37.951Z,124.00
2023-01-29T15:46:44.833Z,89.00
2023-01-29T15:49:49.299Z,84.75
2023-01-29T15:52:55.362Z,73.25
2023-01-29T15:56:00.362Z,80.25
2023-01-29T15:59:09.669Z,101.67
2023-01-29T16:02:22.870Z,83.75
2023-01-29T16:05:29.730Z,101.67
2023-01-29T16:08:35.849Z,85.00
2023-01-29T16:11:43.287Z,93.33
2023-01-29T16:14:47.924Z,94.33
2023-01-29T16:17:52.082Z,89.67
2023-01-29T16:20:57.521Z,80.50
2023-01-29T16:24:03.804Z,77.00
2023-01-29T16:27:15.050Z,108.33
2023-01-29T16:30:20.742Z,91.50
2023-01-29T16:33:33.518Z,149.00
2023-01-29T16:36:37.619Z,105.33
2023-01-29T16:39:47.908Z,105.67
2023-01-29T16:43:31.349Z,115.33
2023-01-29T16:46:38.895Z,98.00
2023-01-29T16:49:51.675Z,91.67
2023-01-29T16:53:00.030Z,104.00
2023-01-29T16:56:07.139Z,102.67
2023-01-29T16:59:21.130Z,85.25
2023-01-29T17:02:28.618Z,68.25
2023-01-29T17:05:36.007Z,87.50
2023-01-29T17:08:42.884Z,79.25
2023-01-29T17:11:46.559Z,88.25
2023-01-29T17:14:57.270Z,123.00
2023-01-29T17:18:00.921Z,68.25
2023-01-29T17:21:07.634Z,80.75
2023-01-29T17:24:11.265Z,78.00
2023-01-29T17:27:30.499Z,84.50
2023-01-29T17:30:37.898Z,85.50
2023-01-29T17:33:44.075Z,82.25
2023-01-29T17:36:48.893Z,98.33
2023-01-29T17:39:53.112Z,93.25
2023-01-29T17:42:56.768Z,86.75
2023-01-29T17:46:02.263Z,92.00
2023-01-29T17:49:11.442Z,95.00
2023-01-29T17:52:15.984Z,93.25
2023-01-29T17:55:19.960Z,101.33
2023-01-29T17:58:26.561Z,145.00
2023-01-29T18:01:31.518Z,143.33
2023-01-29T18:04:37.237Z,113.00
2023-01-29T18:07:44.237Z,80.25
2023-01-29T18:10:48.453Z,118.33
2023-01-29T18:13:51.928Z,114.00
2023-01-29T18:16:58.217Z,102.33
2023-01-29T18:20:02.483Z,90.33
2023-01-29T18:23:07.630Z,95.50
2023-01-29T18:26:12.878Z,77.25
2023-01-29T18:29:16.962Z,87.25
2023-01-29T18:32:22.028Z,83.50
2023-01-29T18:35:26.208Z,96.00
2023-01-29T18:38:29.776Z,87.25
2023-01-29T18:41:34.675Z,98.00
2023-01-29T18:44:38.318Z,138.67
2023-01-29T18:47:43.875Z,100.00
2023-01-29T18:50:48.018Z,125.00
2023-01-29T18:53:52.298Z,178.00
2023-01-29T18:57:06.318Z,146.67
2023-01-29T19:00:18.463Z,201.25
2023-01-29T19:03:24.320Z,146.33
2023-01-29T19:06:31.440Z,100.00
2023-01-29T19:09:35.183Z,108.33
2023-01-29T19:12:40.515Z,109.33
2023-01-29T19:15:44.942Z,90.67
2023-01-29T19:18:50.425Z,124.33
2023-01-29T19:21:54.307Z,87.00
2023-01-29T19:24:58.417Z,91.00
2023-01-29T19:28:02.535Z,63.25
2023-01-29T19:31:06.582Z,74.25
2023-01-29T19:34:11.448Z,65.50
2023-01-29T19:37:15.187Z,61.75
2023-01-29T19:40:21.777Z,55.25
2023-01-29T19:43:25.516Z,95.00
2023-01-29T19:46:30.246Z,103.33
2023-01-29T19:49:35.859Z,92.75
2023-01-29T19:52:50.638Z,72.75
2023-01-29T19:55:59.885Z,77.25
2023-01-29T19:59:05.140Z,87.50
2023-01-29T20:02:10.402Z,92.25
2023-01-29T20:05:17.301Z,90.00
2023-01-29T20:08:25.078Z,106.00
2023-01-29T20:11:28.856Z,122.00
2023-01-29T20:14:32.981Z,104.67
2023-01-29T20:17:36.605Z,94.00
2023-01-29T20:20:43.268Z,81.00
2023-01-29T20:23:46.873Z,82.00
2023-01-29T20:26:51.495Z,93.00
2023-01-29T20:29:55.149Z,102.33
2023-01-29T20:32:59.088Z,94.00
2023-01-29T20:36:06.099Z,87.00
2023-01-29T20:39:10.149Z,82.25
2023-01-29T20:42:13.955Z,87.00
2023-01-29T20:45:18.019Z,82.75
2023-01-29T20:48:21.761Z,79.50
2023-01-29T20:51:27.254Z,92.50
2023-01-29T20:54:34.828Z,86.00
2023-01-29T20:57:40.111Z,86.75
2023-01-29T21:00:44.074Z,93.75
2023-01-29T21:03:49.560Z,101.67
2023-01-29T21:06:54.615Z,96.33
2023-01-29T21:09:58.879Z,98.67
2023-01-29T21:13:02.480Z,96.00
2023-01-29T21:16:09.640Z,95.00
2023-01-29T21:19:15.026Z,101.33
2023-01-29T21:22:20.403Z,100.33
2023-01-29T21:25:24.750Z,120.67
2023-01-29T21:28:28.678Z,99.00
2023-01-29T21:31:32.166Z,84.50
2023-01-29T21:34:36.891Z,94.67
2023-01-29T21:37:42.016Z,81.00
2023-01-29T21:40:46.051Z,104.67
2023-01-29T21:43:48.663Z,88.67
2023-01-29T21:46:53.273Z,106.67
2023-01-29T21:49:58.976Z,79.00
2023-01-29T21:53:04.432Z,97.33
2023-01-29T21:56:08.268Z,81.75
2023-01-29T21:59:12.713Z,90.67
2023-01-29T22:02:16.844Z,89.00
2023-01-29T22:05:21.125Z,92.00
2023-01-29T22:08:26.235Z,86.75
2023-01-29T22:11:30.215Z,69.75
2023-01-29T22:14:33.775Z,87.75
2023-01-29T22:17:41.200Z,66.75
2023-01-29T22:20:44.739Z,92.67
2023-01-29T22:23:51.221Z,89.50
2023-01-29T22:26:54.639Z,89.67
2023-01-29T22:29:58.527Z,76.25
2023-01-29T22:33:02.161Z,94.33
2023-01-29T22:36:07.011Z,66.25
2023-01-29T22:39:12.366Z,73.00
2023-01-29T22:42:16.406Z,81.25
2023-01-29T22:45:19.917Z,84.00
2023-01-29T22:48:26.989Z,86.75
2023-01-29T22:51:30.807Z,84.75
2023-01-29T22:54:38.720Z,76.25
2023-01-29T22:57:42.548Z,69.00
2023-01-29T23:00:51.365Z,71.00
2023-01-29T23:03:56.547Z,70.00
2023-01-29T23:07:01.349Z,84.75
2023-01-29T23:10:07.320Z,76.50
2023-01-29T23:13:11.629Z,71.00
2023-01-29T23:16:16.411Z,77.25
2023-01-29T23:19:21.975Z,69.00
2023-01-29T23:22:26.138Z,70.75
2023-01-29T23:25:46.402Z,79.00
2023-01-29T23:28:49.924Z,81.75
2023-01-29T23:31:53.863Z,80.00
2023-01-29T23:34:57.342Z,69.25
2023-01-29T23:38:01.558Z,82.25
2023-01-29T23:41:07.048Z,65.75
2023-01-29T23:44:11.295Z,67.75
2023-01-29T23:47:14.681Z,71.75
2023-01-29T23:50:19.191Z,70.50
2023-01-29T23:53:23.323Z,64.75
2023-01-29T23:56:29.552Z,61.50
2023-01-29T23:59:51.663Z,72.50
